This is the latest recevied weather packets stored in our database for station/object SQ6IUS-13. If no packets are shown the sender has not sent any weather packets the latest 10 day(s).
| Time | Temp. | Humidity | Pressure | Rain* | Wind** | Luminosity | Snow |
|---|---|---|---|---|---|---|---|
| 1777515900 | -5° C | 100% | 1032.4 hPa | - | - | - | - |
| 1777515001 | -4.44° C | 100% | 1032.3 hPa | - | - | - | - |
| 1777514102 | -4.44° C | 100% | 1032.3 hPa | - | - | - | - |
| 1777511405 | -4.44° C | 100% | 1031.8 hPa | - | - | - | - |
| 1777510506 | -4.44° C | 100% | 1031.7 hPa | - | - | - | - |
| 1777508708 | -3.89° C | 100% | 1031.6 hPa | - | - | - | - |
| 1777507810 | -3.89° C | 100% | 1031.7 hPa | - | - | - | - |
| 1777502416 | -2.78° C | 100% | 1031.6 hPa | - | - | - | - |
| 1777483539 | 10.56° C | 30% | 1029.7 hPa | - | - | - | - |
| 1777482641 | 13.33° C | 27% | 1029.4 hPa | - | - | - | - |
| 1777481742 | 14.44° C | 27% | 1029.4 hPa | - | - | - | - |
| 1777478146 | 13.33° C | 27% | 1029.1 hPa | - | - | - | - |
| 1777474550 | 17.78° C | 22% | 1029.1 hPa | - | - | - | - |
| 1777472760 | 16.67° C | 22% | 1029.2 hPa | - | - | - | - |
| 1777471854 | 18.89° C | 21% | 1028.9 hPa | - | - | - | - |
| 1777465561 | 21.11° C | 19% | 1028.9 hPa | - | - | - | - |
| 1777463764 | 22.22° C | 18% | 1028.9 hPa | - | - | - | - |
| 1777461966 | 23.33° C | 16% | 1028.8 hPa | - | - | - | - |
| 1777461081 | 23.89° C | 16% | 1028.7 hPa | - | - | - | - |
| 1777454774 | 17.22° C | 22% | 1029 hPa | - | - | - | - |
| 1777453874 | 16.11° C | 23% | 1029.2 hPa | - | - | - | - |
| 1777450277 | 12.22° C | 26% | 1029.2 hPa | - | - | - | - |
| 1777449377 | 12.78° C | 28% | 1029.2 hPa | - | - | - | - |
| 1777448478 | 11.67° C | 30% | 1029 hPa | - | - | - | - |
| 1777447578 | 10° C | 32% | 1029 hPa | - | - | - | - |
* Rain since midnight (hover to see other rain measurements)
** Current wind speed in m/s (hover to see current wind gust speed)